Time;durP1;ratioP1;P1;durP2;ratioP2;P2;SDS_P1;SDS_P2;PMS_P1;PMS_P2;Temp;Humidity;BMP_temperature;BMP_pressure;BME280_temperature;BME280_humidity;BME280_pressure;Samples;Min_cycle;Max_cycle;Signal;HPM_P1;HPM_P2
2021/03/09 00:01:27;;;;;;;16.02;11.57;;;0.40;98.00;;;;;;6122639;28;20757;-83
2021/03/09 00:04:28;;;;;;;19.55;13.07;;;0.70;91.00;;;;;;6122626;28;20085;-83
2021/03/09 00:07:29;;;;;;;16.98;11.82;;;1.50;91.10;;;;;;6133392;28;20121;-84
2021/03/09 00:10:29;;;;;;;22.35;13.93;;;1.90;91.40;;;;;;6150065;28;20038;-86
2021/03/09 00:13:30;;;;;;;17.77;12.93;;;0.20;99.90;;;;;;6138840;28;20462;-84
2021/03/09 00:16:31;;;;;;;18.35;12.10;;;0.20;99.90;;;;;;6146627;28;20034;-82
2021/03/09 00:19:31;;;;;;;19.67;11.70;;;0.30;99.90;;;;;;6123033;28;20130;-84
2021/03/09 00:22:32;;;;;;;15.98;11.93;;;0.20;97.70;;;;;;6138706;28;20031;-83
2021/03/09 00:25:32;;;;;;;15.55;11.85;;;0.60;99.90;;;;;;6138597;28;20065;-84
2021/03/09 00:28:33;;;;;;;15.15;11.73;;;0.30;96.40;;;;;;6149324;28;20039;-84
2021/03/09 00:31:34;;;;;;;19.65;11.43;;;0.70;99.90;;;;;;6144285;28;20035;-84
2021/03/09 00:34:35;;;;;;;16.63;11.73;;;;;;;;;;6154761;28;20050;-85
2021/03/09 00:37:36;;;;;;;19.63;12.20;;;;;;;;;;6138067;28;20110;-83
2021/03/09 00:40:37;;;;;;;17.63;11.38;;;;;;;;;;6138309;28;20045;-85
2021/03/09 00:43:38;;;;;;;17.67;12.93;;;;;;;;;;6138123;28;20768;-82
2021/03/09 00:46:39;;;;;;;16.85;11.50;;;0.20;99.90;;;;;;6171796;28;20027;-84
2021/03/09 00:49:40;;;;;;;18.48;12.32;;;;;;;;;;6138211;28;20118;-84
2021/03/09 00:52:41;;;;;;;18.08;12.55;;;;;;;;;;6138268;28;20057;-83
2021/03/09 00:55:41;;;;;;;16.83;12.45;;;-0.10;99.90;;;;;;6137641;28;20425;-83
2021/03/09 00:58:42;;;;;;;15.88;12.10;;;;;;;;;;6121931;28;20046;-81
2021/03/09 01:01:43;;;;;;;18.90;12.43;;;0.00;89.20;;;;;;6153950;28;20235;-83
2021/03/09 01:04:44;;;;;;;16.73;12.05;;;;;;;;;;6138666;28;20639;-83
2021/03/09 01:07:44;;;;;;;18.77;12.25;;;-0.10;89.00;;;;;;6153761;28;20035;-86
2021/03/09 01:10:45;;;;;;;14.95;11.38;;;2.50;91.60;;;;;;6132578;28;20045;-84
2021/03/09 01:13:46;;;;;;;16.70;11.68;;;0.20;96.20;;;;;;6139293;28;20030;-82
2021/03/09 01:16:46;;;;;;;16.98;10.80;;;0.60;91.00;;;;;;6125409;28;20045;-85
2021/03/09 01:19:47;;;;;;;16.95;12.25;;;0.40;91.00;;;;;;6154146;28;20704;-86
2021/03/09 01:22:48;;;;;;;18.00;12.30;;;0.90;91.10;;;;;;6122903;28;20033;-86
2021/03/09 01:25:48;;;;;;;19.90;12.18;;;0.20;90.80;;;;;;6137739;28;20050;-85
2021/03/09 01:28:49;;;;;;;16.92;11.85;;;0.10;98.30;;;;;;6151316;28;20089;-86
2021/03/09 01:31:49;;;;;;;16.55;11.95;;;0.10;91.10;;;;;;6137376;28;20386;-84
2021/03/09 01:34:50;;;;;;;17.42;12.88;;;1.00;91.60;;;;;;6122281;28;20529;-84
2021/03/09 01:37:51;;;;;;;20.10;12.55;;;0.90;91.90;;;;;;6131511;28;20026;-82
2021/03/09 01:40:51;;;;;;;18.42;12.95;;;1.50;92.30;;;;;;6129885;28;20046;-84
2021/03/09 01:43:52;;;;;;;19.85;13.23;;;-0.40;99.60;;;;;;6137534;28;20390;-83
2021/03/09 01:46:53;;;;;;;18.27;13.38;;;-0.30;92.20;;;;;;6125101;28;20031;-83
2021/03/09 01:49:54;;;;;;;18.60;12.88;;;0.10;92.10;;;;;;6142291;28;20078;-84
2021/03/09 01:52:54;;;;;;;18.98;12.57;;;1.20;92.50;;;;;;6125855;28;20405;-87
2021/03/09 01:55:55;;;;;;;21.15;12.98;;;0.80;92.20;;;;;;6127111;28;20023;-86
2021/03/09 01:58:56;;;;;;;20.63;13.82;;;0.30;92.00;;;;;;6125996;28;20500;-84
2021/03/09 02:01:57;;;;;;;20.73;13.30;;;1.90;92.20;;;;;;6142229;28;20036;-85
2021/03/09 02:04:58;;;;;;;18.25;13.07;;;-0.20;91.90;;;;;;6125579;28;20031;-83
2021/03/09 02:07:59;;;;;;;20.15;13.27;;;;;;;;;;6130182;28;20034;-85
2021/03/09 02:11:00;;;;;;;19.42;12.70;;;;;;;;;;6157830;28;20031;-83
2021/03/09 02:14:08;;;;;;;21.30;14.30;;;-0.40;99.40;;;;;;6157534;28;20030;-86
2021/03/09 02:17:19;;;;;;;19.13;13.20;;;-0.20;90.90;;;;;;6158084;28;20073;-84
2021/03/09 02:21:01;;;;;;;19.73;13.85;;;-0.40;90.90;;;;;;6134798;28;20049;-86
2021/03/09 02:24:23;;;;;;;18.25;12.63;;;-0.40;91.10;;;;;;6174052;28;20035;-82
2021/03/09 02:27:32;;;;;;;24.48;13.98;;;-0.40;91.10;;;;;;6157220;28;20548;-82
2021/03/09 02:30:34;;;;;;;18.42;12.68;;;0.20;92.40;;;;;;6141892;28;20035;-85
2021/03/09 02:33:44;;;;;;;23.13;15.45;;;-0.50;99.90;;;;;;6140991;28;20035;-85
2021/03/09 02:36:45;;;;;;;20.00;13.25;;;0.50;92.70;;;;;;6151469;28;20035;-85
2021/03/09 02:39:46;;;;;;;18.60;13.52;;;-0.70;99.50;;;;;;6140413;28;20109;-82
2021/03/09 02:42:50;;;;;;;17.90;12.10;;;-0.60;99.90;;;;;;6131464;28;20058;-82
2021/03/09 02:45:51;;;;;;;21.65;14.60;;;-0.60;99.90;;;;;;6124226;28;20027;-83
2021/03/09 02:48:51;;;;;;;20.17;12.93;;;-0.40;99.90;;;;;;6144777;28;20489;-87
2021/03/09 02:51:52;;;;;;;20.77;13.88;;;;;;;;;;6139563;28;20105;-84
2021/03/09 02:54:53;;;;;;;22.52;13.93;;;;;;;;;;6140138;28;20042;-83
2021/03/09 02:57:54;;;;;;;19.98;13.35;;;;;;;;;;6138688;28;20102;-84
2021/03/09 03:00:55;;;;;;;19.45;13.30;;;-0.60;99.90;;;;;;6139506;28;20038;-84
2021/03/09 03:03:56;;;;;;;19.23;13.55;;;;;;;;;;6129378;28;20038;-84
2021/03/09 03:06:57;;;;;;;21.10;13.98;;;-0.20;97.20;;;;;;6155631;28;20073;-82
2021/03/09 03:09:58;;;;;;;18.98;13.65;;;-0.40;92.90;;;;;;6137125;28;20023;-85
2021/03/09 03:12:58;;;;;;;21.15;14.45;;;0.10;93.10;;;;;;6124018;28;20034;-83
2021/03/09 03:15:59;;;;;;;19.17;14.73;;;1.00;93.10;;;;;;6123571;28;20030;-85
2021/03/09 03:19:00;;;;;;;19.17;13.85;;;;;;;;;;6139416;28;20079;-86
2021/03/09 03:22:01;;;;;;;21.38;14.82;;;-0.40;91.50;;;;;;6139162;28;20637;-83
2021/03/09 03:25:02;;;;;;;20.30;14.32;;;-0.40;92.80;;;;;;6123631;28;20052;-83
2021/03/09 03:28:04;;;;;;;21.83;15.18;;;;;;;;;;6139257;28;20647;-84
2021/03/09 03:31:05;;;;;;;24.85;15.35;;;;;;;;;;6155803;28;20470;-83
2021/03/09 03:34:06;;;;;;;19.35;13.75;;;;;;;;;;6155377;28;20023;-84
2021/03/09 03:37:07;;;;;;;21.30;14.82;;;-0.60;91.20;;;;;;6155039;28;20030;-84
2021/03/09 03:40:11;;;;;;;22.08;14.52;;;-0.20;93.30;;;;;;6136216;28;20034;-85
2021/03/09 03:43:11;;;;;;;20.95;14.65;;;-0.60;92.70;;;;;;6154837;28;20027;-85
2021/03/09 03:46:12;;;;;;;22.73;14.68;;;0.70;93.60;;;;;;6128572;28;20042;-82
2021/03/09 03:49:13;;;;;;;22.33;15.25;;;0.50;93.70;;;;;;6133284;28;20054;-82
2021/03/09 03:52:25;;;;;;;19.45;14.40;;;1.20;94.00;;;;;;6122856;28;20064;-86
2021/03/09 03:55:47;;;;;;;20.35;13.88;;;-0.90;92.90;;;;;;6123382;28;20034;-82
2021/03/09 03:58:49;;;;;;;22.92;17.05;;;-0.90;92.90;;;;;;6138576;28;20039;-84
2021/03/09 04:01:51;;;;;;;21.45;15.77;;;0.80;95.00;;;;;;6154924;28;20035;-83
2021/03/09 04:04:52;;;;;;;22.10;14.48;;;;;;;;;;6127782;28;20062;-84
2021/03/09 04:07:52;;;;;;;24.63;15.70;;;-1.00;93.20;;;;;;6154099;28;20445;-86
2021/03/09 04:10:53;;;;;;;22.38;15.32;;;-0.80;94.70;;;;;;6149232;28;20041;-84
2021/03/09 04:13:53;;;;;;;19.45;14.70;;;1.60;95.20;;;;;;6138257;28;20035;-84
2021/03/09 04:16:54;;;;;;;23.25;16.73;;;0.40;94.40;;;;;;6138584;28;20501;-83
2021/03/09 04:19:55;;;;;;;26.65;16.65;;;1.30;94.60;;;;;;6138428;28;20061;-84
2021/03/09 04:22:56;;;;;;;22.95;15.90;;;;;;;;;;6125680;28;20409;-83
2021/03/09 04:25:57;;;;;;;23.88;16.27;;;-0.80;92.60;;;;;;6138209;28;20517;-85
2021/03/09 04:28:58;;;;;;;25.08;16.08;;;0.30;94.80;;;;;;6132133;28;20031;-84
2021/03/09 04:31:58;;;;;;;23.23;15.30;;;-1.20;94.40;;;;;;6137848;28;20041;-82
2021/03/09 04:34:59;;;;;;;23.50;15.82;;;0.70;95.30;;;;;;6122166;28;20031;-84
2021/03/09 04:38:00;;;;;;;28.25;16.00;;;;;;;;;;6131996;28;20780;-84
2021/03/09 04:41:01;;;;;;;22.52;15.75;;;-1.20;93.40;;;;;;6153582;28;20039;-85
2021/03/09 04:44:02;;;;;;;23.98;15.98;;;-0.90;95.50;;;;;;6127901;28;20031;-84
2021/03/09 04:47:02;;;;;;;22.05;15.23;;;-1.20;95.60;;;;;;6121437;28;20106;-82
2021/03/09 04:50:08;;;;;;;24.42;16.42;;;-1.30;95.90;;;;;;6141387;28;20039;-81
2021/03/09 04:53:09;;;;;;;24.80;16.85;;;-1.20;95.70;;;;;;6137977;28;20055;-83
2021/03/09 04:56:09;;;;;;;25.40;17.27;;;-1.00;96.40;;;;;;6147145;28;20038;-84
2021/03/09 04:59:10;;;;;;;24.17;16.02;;;0.40;97.00;;;;;;6121948;28;20045;-83
2021/03/09 05:02:11;;;;;;;21.63;15.82;;;-0.20;96.30;;;;;;6133536;28;20027;-82
2021/03/09 05:05:12;;;;;;;26.23;16.75;;;-0.20;96.10;;;;;;6121499;28;20125;-85
2021/03/09 05:08:12;;;;;;;26.40;16.45;;;-1.10;95.40;;;;;;6121700;28;20031;-83
2021/03/09 05:11:13;;;;;;;23.15;16.98;;;0.00;95.90;;;;;;6137256;28;20066;-85
2021/03/09 05:14:14;;;;;;;25.83;16.42;;;-0.90;95.90;;;;;;6121087;28;20469;-82
2021/03/09 05:17:14;;;;;;;23.48;16.40;;;-1.00;95.80;;;;;;6126648;28;20126;-84
2021/03/09 05:20:15;;;;;;;23.17;15.73;;;0.00;96.20;;;;;;6122354;28;20050;-83
2021/03/09 05:23:16;;;;;;;22.95;16.08;;;-1.10;99.90;;;;;;6126081;28;20034;-82
2021/03/09 05:26:16;;;;;;;25.75;17.15;;;0.20;96.30;;;;;;6126396;28;20034;-82
2021/03/09 05:29:17;;;;;;;24.75;17.15;;;1.10;96.20;;;;;;6141167;28;20031;-83
2021/03/09 05:32:17;;;;;;;25.33;16.65;;;0.20;95.90;;;;;;6141673;28;20050;-82
2021/03/09 05:35:19;;;;;;;23.92;16.88;;;;;;;;;;6125728;28;20125;-84
2021/03/09 05:38:19;;;;;;;24.23;17.83;;;-1.50;99.90;;;;;;6141922;28;20030;-84
2021/03/09 05:41:20;;;;;;;29.70;20.70;;;-1.10;99.90;;;;;;6150234;28;20462;-84
2021/03/09 05:44:20;;;;;;;26.80;17.67;;;-1.00;99.90;;;;;;6141372;28;20423;-83
2021/03/09 05:47:21;;;;;;;25.77;17.13;;;-1.00;99.90;;;;;;6135541;28;20035;-84
2021/03/09 05:50:22;;;;;;;30.15;17.92;;;;;;;;;;6140198;28;20473;-84
2021/03/09 05:53:23;;;;;;;29.00;20.10;;;-1.10;99.90;;;;;;6141565;28;20770;-85
2021/03/09 05:56:24;;;;;;;28.30;18.38;;;-1.10;99.90;;;;;;6141149;28;20037;-86
2021/03/09 05:59:25;;;;;;;28.95;18.73;;;-1.40;99.90;;;;;;6142388;28;20031;-82
2021/03/09 06:02:26;;;;;;;28.83;17.25;;;;;;;;;;6141259;28;20035;-83
2021/03/09 06:05:27;;;;;;;25.13;17.45;;;;;;;;;;6157555;28;20027;-82
2021/03/09 06:08:29;;;;;;;25.65;17.60;;;-1.30;99.90;;;;;;6133804;28;20085;-84
2021/03/09 06:11:29;;;;;;;26.52;16.77;;;-1.30;99.90;;;;;;6149945;28;20681;-84
2021/03/09 06:14:30;;;;;;;24.45;17.02;;;-1.20;99.90;;;;;;6133044;28;20046;-83
2021/03/09 06:17:38;;;;;;;28.63;19.08;;;-1.20;99.90;;;;;;6140757;28;20101;-85
2021/03/09 06:20:39;;;;;;;24.20;16.88;;;;;;;;;;6139619;28;20361;-84
2021/03/09 06:23:41;;;;;;;24.30;18.02;;;-1.00;94.10;;;;;;6140223;28;20027;-85
2021/03/09 06:26:42;;;;;;;27.50;18.33;;;0.90;95.80;;;;;;6133383;28;20037;-85
2021/03/09 06:29:45;;;;;;;26.58;19.42;;;-1.10;99.90;;;;;;6130995;28;20031;-85
2021/03/09 06:32:46;;;;;;;31.55;19.58;;;0.00;95.80;;;;;;6135677;28;20023;-83
2021/03/09 06:35:50;;;;;;;39.75;23.85;;;0.40;96.00;;;;;;6147088;28;20042;-84
2021/03/09 06:38:54;;;;;;;36.85;22.95;;;-0.90;95.30;;;;;;6156728;28;20039;-85
2021/03/09 06:42:00;;;;;;;90.20;47.70;;;-0.80;96.20;;;;;;6124248;28;20041;-81
2021/03/09 06:45:16;;;;;;;29.75;20.33;;;1.50;96.70;;;;;;6124489;28;20031;-83
2021/03/09 06:48:20;;;;;;;27.08;18.02;;;-0.90;96.50;;;;;;6130296;28;20034;-83
2021/03/09 06:51:34;;;;;;;69.03;37.78;;;-0.80;96.20;;;;;;6139710;28;20461;-83
2021/03/09 06:54:45;;;;;;;46.42;28.05;;;-0.10;99.90;;;;;;6139803;28;20030;-82
2021/03/09 06:58:11;;;;;;;34.97;21.88;;;0.20;95.40;;;;;;6140313;28;20477;-83
2021/03/09 07:01:13;;;;;;;166.98;83.63;;;0.20;94.30;;;;;;6140965;28;20548;-81
2021/03/09 07:04:21;;;;;;;212.52;106.05;;;2.40;94.90;;;;;;6124192;28;20027;-81
2021/03/09 07:07:32;;;;;;;155.45;75.28;;;1.20;94.30;;;;;;6123678;28;20027;-82
2021/03/09 07:10:33;;;;;;;37.60;24.98;;;;;;;;;;6139702;28;20390;-84
2021/03/09 07:13:34;;;;;;;29.98;21.08;;;;;;;;;;6155318;28;20034;-78
2021/03/09 07:16:35;;;;;;;29.83;19.40;;;2.10;96.00;;;;;;6139692;28;20425;-81
2021/03/09 07:19:43;;;;;;;30.90;20.02;;;2.80;90.60;;;;;;6138672;28;20085;-81
2021/03/09 07:22:44;;;;;;;29.88;19.27;;;2.80;88.30;;;;;;6155255;28;20121;-81
2021/03/09 07:25:49;;;;;;;27.20;20.10;;;3.30;90.10;;;;;;6137676;28;20038;-81
2021/03/09 07:28:51;;;;;;;27.52;19.10;;;3.50;89.70;;;;;;6140353;28;20027;-81
2021/03/09 07:31:52;;;;;;;37.65;18.35;;;4.50;90.30;;;;;;6123054;28;20511;-85
2021/03/09 07:34:52;;;;;;;28.45;17.50;;;3.90;89.50;;;;;;6138848;28;20214;-81
2021/03/09 07:37:53;;;;;;;30.50;19.13;;;4.30;88.40;;;;;;6122906;28;20039;-84
2021/03/09 07:40:54;;;;;;;28.27;19.67;;;4.20;88.00;;;;;;6123463;28;20405;-81
2021/03/09 07:43:55;;;;;;;28.33;17.95;;;;;;;;;;6142680;28;20027;-81
2021/03/09 07:46:55;;;;;;;28.85;18.38;;;4.20;82.10;;;;;;6154541;28;20026;-81
2021/03/09 07:49:56;;;;;;;26.15;17.73;;;4.60;86.50;;;;;;6139013;28;20035;-82
2021/03/09 07:53:10;;;;;;;29.23;18.05;;;4.70;85.10;;;;;;6138988;28;20137;-84
2021/03/09 07:56:13;;;;;;;25.52;17.85;;;5.10;82.70;;;;;;6154663;28;20098;-82
2021/03/09 07:59:13;;;;;;;25.50;17.50;;;5.10;80.90;;;;;;6123471;28;20059;-83
2021/03/09 08:02:14;;;;;;;26.48;17.13;;;5.50;79.30;;;;;;6126789;28;20034;-84
2021/03/09 08:05:16;;;;;;;22.83;16.52;;;5.70;77.10;;;;;;6121862;28;20100;-84
2021/03/09 08:08:45;;;;;;;26.23;17.08;;;5.60;74.90;;;;;;6134389;28;20027;-85
2021/03/09 08:11:46;;;;;;;24.40;18.15;;;5.40;72.30;;;;;;6172093;28;20489;-85
2021/03/09 08:14:46;;;;;;;35.70;25.23;;;5.60;76.40;;;;;;6136180;28;20030;-85
2021/03/09 08:17:47;;;;;;;26.55;18.67;;;5.60;76.40;;;;;;6122474;28;20426;-85
2021/03/09 08:20:52;;;;;;;21.80;16.50;;;5.30;76.70;;;;;;6125481;28;20042;-87
2021/03/09 08:23:53;;;;;;;23.38;17.23;;;5.50;83.90;;;;;;6154490;28;20023;-86
2021/03/09 08:26:53;;;;;;;22.98;17.38;;;5.40;77.60;;;;;;6122050;28;20041;-86
2021/03/09 08:29:56;;;;;;;24.10;16.95;;;5.70;76.10;;;;;;6122134;28;20034;-85
2021/03/09 08:33:33;;;;;;;28.13;17.33;;;5.70;77.20;;;;;;6137582;28;20038;-87
2021/03/09 08:36:35;;;;;;;25.08;17.25;;;5.80;92.40;;;;;;6079584;28;20110;-85
2021/03/09 08:39:36;;;;;;;20.55;16.67;;;6.00;78.00;;;;;;6138093;28;20042;-85
2021/03/09 08:43:02;;;;;;;25.77;17.15;;;6.10;75.60;;;;;;6122011;28;20069;-87
2021/03/09 08:46:03;;;;;;;22.73;16.80;;;6.40;72.10;;;;;;6171080;28;20039;-86
2021/03/09 08:49:04;;;;;;;26.95;18.17;;;6.50;74.40;;;;;;6121129;28;20031;-87
2021/03/09 08:52:08;;;;;;;21.42;17.60;;;6.70;74.20;;;;;;6121239;29;20402;-84
2021/03/09 08:55:09;;;;;;;22.05;17.83;;;7.50;90.60;;;;;;6113727;29;20466;-87
2021/03/09 08:58:09;;;;;;;23.80;18.17;;;7.30;73.30;;;;;;6114231;29;20062;-86
2021/03/09 09:01:10;;;;;;;22.45;16.98;;;;;;;;;;6106606;29;20520;-85
2021/03/09 09:04:15;;;;;;;23.15;16.95;;;8.00;83.40;;;;;;6141787;28;20030;-86
2021/03/09 09:07:31;;;;;;;21.20;16.98;;;7.90;69.30;;;;;;6102209;29;20034;-85
2021/03/09 09:10:32;;;;;;;20.30;16.48;;;8.10;66.90;;;;;;6111600;29;20046;-84
2021/03/09 09:13:33;;;;;;;21.27;17.30;;;8.40;70.40;;;;;;6109143;29;20028;-86
2021/03/09 09:16:34;;;;;;;24.20;16.25;;;8.90;69.00;;;;;;6120266;29;20031;-86
2021/03/09 09:19:35;;;;;;;21.58;15.95;;;;;;;;;;6113535;29;20039;-86
2021/03/09 09:22:36;;;;;;;22.73;17.63;;;9.30;90.10;;;;;;6129500;29;20037;-87
2021/03/09 09:25:56;;;;;;;26.92;17.35;;;9.80;90.80;;;;;;6109166;29;20032;-85
2021/03/09 09:29:02;;;;;;;20.75;16.38;;;9.80;60.00;;;;;;6115297;29;20479;-86
2021/03/09 09:32:03;;;;;;;22.25;17.60;;;9.80;63.20;;;;;;6121010;29;20218;-85
2021/03/09 09:35:04;;;;;;;24.05;17.58;;;10.20;91.60;;;;;;6120646;29;20122;-86
2021/03/09 09:38:11;;;;;;;21.27;16.38;;;10.10;89.40;;;;;;6127334;29;20536;-86
2021/03/09 09:41:12;;;;;;;23.27;17.33;;;;;;;;;;6128973;29;20541;-86
2021/03/09 09:44:13;;;;;;;23.40;17.17;;;10.50;91.30;;;;;;6137795;29;20035;-85
2021/03/09 09:47:14;;;;;;;23.58;16.48;;;;;;;;;;6113376;29;20027;-85
2021/03/09 09:50:15;;;;;;;20.65;16.65;;;10.30;90.80;;;;;;6134399;28;20027;-85
2021/03/09 09:53:35;;;;;;;21.13;16.77;;;10.80;71.20;;;;;;6127710;28;20051;-86
2021/03/09 09:56:36;;;;;;;21.45;16.73;;;;;;;;;;6152356;28;20038;-88
2021/03/09 09:59:37;;;;;;;22.77;16.75;;;;;;;;;;6136324;28;20559;-86
2021/03/09 10:02:40;;;;;;;23.00;17.00;;;;;;;;;;6153031;28;20037;-85
2021/03/09 10:05:40;;;;;;;;;;;11.20;72.90;;;;;;6170738;28;20030;-86
2021/03/09 10:08:41;;;;;;;24.60;17.23;;;11.80;60.00;;;;;;6157026;28;19906;-83
2021/03/09 10:11:48;;;;;;;25.80;17.73;;;11.20;60.30;;;;;;6125276;28;20097;-85
2021/03/09 10:14:55;;;;;;;23.25;16.50;;;11.20;59.80;;;;;;6156711;28;20030;-87
2021/03/09 10:18:03;;;;;;;21.80;16.50;;;11.60;59.40;;;;;;6131390;28;20034;-85
2021/03/09 10:21:10;;;;;;;22.02;17.02;;;11.80;62.90;;;;;;6141086;28;20074;-85
2021/03/09 10:24:19;;;;;;;22.88;17.15;;;11.80;57.00;;;;;;6156828;28;20031;-87
2021/03/09 10:27:22;;;;;;;23.50;17.00;;;12.60;59.70;;;;;;6125286;28;20105;-84
2021/03/09 10:30:23;;;;;;;20.17;16.48;;;12.40;72.70;;;;;;6125257;28;20038;-84
2021/03/09 10:33:24;;;;;;;20.98;16.33;;;;;;;;;;6124173;28;20393;-86
2021/03/09 10:36:25;;;;;;;24.25;17.45;;;12.60;73.40;;;;;;6140520;28;20030;-86
2021/03/09 10:39:26;;;;;;;20.90;16.75;;;12.30;75.20;;;;;;6130465;28;20050;-86
2021/03/09 10:42:28;;;;;;;21.77;17.48;;;13.10;57.50;;;;;;6124874;28;20089;-85
2021/03/09 10:45:30;;;;;;;22.92;17.60;;;12.20;58.50;;;;;;6156640;28;20054;-85
2021/03/09 10:48:31;;;;;;;22.95;17.25;;;;;;;;;;6124925;28;20058;-87
2021/03/09 10:51:31;;;;;;;22.90;17.35;;;12.00;56.10;;;;;;6148367;29;20051;-86
2021/03/09 10:54:33;;;;;;;23.20;18.13;;;12.20;59.70;;;;;;6102373;29;20027;-83
2021/03/09 10:57:34;;;;;;;23.25;18.17;;;12.40;59.00;;;;;;6131664;29;20496;-82
2021/03/09 11:00:34;;;;;;;21.80;16.92;;;12.70;59.20;;;;;;6130682;29;20047;-83
2021/03/09 11:03:35;;;;;;;22.02;17.48;;;12.80;57.80;;;;;;6116366;29;20031;-84
2021/03/09 11:06:36;;;;;;;22.92;18.35;;;13.20;70.50;;;;;;6109726;29;20031;-84
2021/03/09 11:09:36;;;;;;;20.48;16.88;;;13.30;56.40;;;;;;6121483;29;20138;-84
2021/03/09 11:12:38;;;;;;;23.35;17.25;;;13.40;55.60;;;;;;6114973;29;20050;-83
2021/03/09 11:15:39;;;;;;;22.33;17.37;;;13.40;55.00;;;;;;6104219;29;20072;-84
2021/03/09 11:18:40;;;;;;;24.45;18.20;;;13.50;55.20;;;;;;6125594;29;20073;-86
2021/03/09 11:21:40;;;;;;;20.58;17.52;;;13.00;68.20;;;;;;6115749;29;20039;-84
2021/03/09 11:24:41;;;;;;;21.38;17.90;;;13.00;54.60;;;;;;6143436;29;20066;-86
2021/03/09 11:27:42;;;;;;;25.23;18.85;;;12.80;55.70;;;;;;6115870;29;20374;-83
2021/03/09 11:30:42;;;;;;;26.42;19.08;;;12.60;57.70;;;;;;6115839;29;20035;-83
2021/03/09 11:33:43;;;;;;;21.20;17.85;;;12.80;56.70;;;;;;6130575;29;20054;-88
2021/03/09 11:36:44;;;;;;;21.80;17.85;;;12.90;56.80;;;;;;6115806;29;20039;-83
2021/03/09 11:39:44;;;;;;;24.52;18.00;;;11.10;56.20;;;;;;6130509;29;20363;-85
2021/03/09 11:42:45;;;;;;;22.15;18.25;;;;;;;;;;6115413;29;20094;-87
2021/03/09 11:45:47;;;;;;;23.30;18.13;;;;;;;;;;6131845;29;20051;-87
2021/03/09 11:48:48;;;;;;;27.55;20.05;;;13.10;51.50;;;;;;6123980;29;20073;-86
2021/03/09 11:51:55;;;;;;;24.83;18.55;;;;;;;;;;6114681;29;20066;-90
2021/03/09 11:54:55;;;;;;;24.25;20.00;;;12.80;68.40;;;;;;6130467;29;20776;-88
2021/03/09 11:57:56;;;;;;;22.02;17.63;;;;;;;;;;6125636;29;20024;-84
2021/03/09 12:00:57;;;;;;;22.33;17.70;;;12.90;51.20;;;;;;6130280;28;20516;-83
2021/03/09 12:03:58;;;;;;;23.63;18.30;;;;;;;;;;6120105;28;20063;-81
2021/03/09 12:06:59;;;;;;;25.27;20.55;;;12.60;52.40;;;;;;6127298;29;20027;-82
2021/03/09 12:09:59;;;;;;;27.77;18.50;;;12.50;73.50;;;;;;6113673;28;20489;-84
2021/03/09 12:13:00;;;;;;;25.33;17.13;;;12.50;56.50;;;;;;6129738;29;20042;-83
2021/03/09 12:16:00;;;;;;;21.67;18.05;;;12.40;56.10;;;;;;6114410;29;20688;-85
2021/03/09 12:19:02;;;;;;;26.30;19.15;;;12.30;56.80;;;;;;6142867;28;20397;-85
2021/03/09 12:22:03;;;;;;;21.77;17.17;;;12.50;56.30;;;;;;6114166;29;20402;-82
2021/03/09 12:25:04;;;;;;;24.63;19.13;;;12.40;55.90;;;;;;6114450;29;20036;-82
2021/03/09 12:28:05;;;;;;;22.08;17.08;;;12.10;71.80;;;;;;6110222;29;20032;-83
2021/03/09 12:31:06;;;;;;;23.08;18.15;;;12.10;76.40;;;;;;6113767;29;20035;-84
2021/03/09 12:34:07;;;;;;;22.85;18.02;;;12.30;73.40;;;;;;6124715;29;20027;-83
2021/03/09 12:37:08;;;;;;;22.10;18.33;;;;;;;;;;6129928;29;20027;-83
2021/03/09 12:40:09;;;;;;;21.83;17.13;;;12.50;73.50;;;;;;6129613;29;20492;-84
2021/03/09 12:43:10;;;;;;;25.33;18.88;;;12.40;78.80;;;;;;6115069;29;20042;-84
2021/03/09 12:46:11;;;;;;;24.40;17.85;;;;;;;;;;6120737;29;20486;-84
2021/03/09 12:49:12;;;;;;;22.40;17.70;;;12.30;78.50;;;;;;6132975;29;20035;-84
2021/03/09 12:52:12;;;;;;;24.30;18.13;;;11.90;71.90;;;;;;6116906;28;20051;-82
2021/03/09 12:55:13;;;;;;;31.83;19.88;;;12.20;82.30;;;;;;6132861;28;20046;-84
2021/03/09 12:58:14;;;;;;;24.10;17.73;;;;;;;;;;6136915;28;20042;-84
2021/03/09 13:01:15;;;;;;;22.80;17.63;;;12.20;87.00;;;;;;6136746;28;20038;-84
2021/03/09 13:04:16;;;;;;;19.60;17.02;;;;;;;;;;6137115;28;20034;-83
2021/03/09 13:07:17;;;;;;;22.95;18.20;;;11.90;76.40;;;;;;6152767;28;20026;-84
2021/03/09 13:10:18;;;;;;;20.33;16.77;;;;;;;;;;6137954;28;20109;-84
2021/03/09 13:13:19;;;;;;;33.25;20.02;;;;;;;;;;6136770;28;20490;-83
2021/03/09 13:16:19;;;;;;;23.38;17.75;;;11.80;90.50;;;;;;6152934;28;20438;-83
2021/03/09 13:19:22;;;;;;;24.75;19.10;;;;;;;;;;6136549;28;20038;-85
2021/03/09 13:22:23;;;;;;;25.05;18.65;;;;;;;;;;6153097;28;20028;-84
2021/03/09 13:25:24;;;;;;;27.02;20.35;;;11.10;87.80;;;;;;6136875;28;20138;-84
2021/03/09 13:28:25;;;;;;;24.90;19.27;;;;;;;;;;6134356;28;20093;-84
2021/03/09 13:31:26;;;;;;;22.98;18.23;;;11.00;71.90;;;;;;6136441;28;20069;-83
2021/03/09 13:34:26;;;;;;;22.60;17.20;;;11.00;74.30;;;;;;6125159;28;20031;-84
2021/03/09 13:37:27;;;;;;;25.17;19.25;;;11.00;59.60;;;;;;6125942;28;20477;-82
2021/03/09 13:40:27;;;;;;;31.42;18.95;;;10.90;58.80;;;;;;6120850;28;20042;-84
2021/03/09 13:43:28;;;;;;;24.95;19.08;;;11.20;59.20;;;;;;6157079;28;20509;-84
2021/03/09 13:46:29;;;;;;;23.98;18.73;;;;;;;;;;6142489;28;20492;-86
2021/03/09 13:49:30;;;;;;;23.35;19.13;;;11.30;56.40;;;;;;6156950;28;20456;-82
2021/03/09 13:52:32;;;;;;;26.45;19.98;;;;;;;;;;6125071;28;20053;-82
2021/03/09 13:55:33;;;;;;;24.42;19.45;;;;;;;;;;6157166;28;20057;-81
2021/03/09 13:58:34;;;;;;;25.90;19.67;;;11.40;53.60;;;;;;6141200;28;20042;-82
2021/03/09 14:01:35;;;;;;;25.65;19.85;;;11.40;58.60;;;;;;6141410;28;20121;-82
2021/03/09 14:04:35;;;;;;;29.13;19.55;;;11.40;57.00;;;;;;6124911;28;20121;-81
2021/03/09 14:07:37;;;;;;;25.05;19.17;;;;;;;;;;6156390;28;20027;-81
2021/03/09 14:10:37;;;;;;;25.05;19.50;;;11.30;53.50;;;;;;6141037;28;20369;-81
2021/03/09 14:13:38;;;;;;;24.77;19.77;;;11.20;56.80;;;;;;6150203;28;20078;-81
2021/03/09 14:16:39;;;;;;;27.73;20.45;;;11.60;76.10;;;;;;6156556;28;20082;-84
2021/03/09 14:19:39;;;;;;;25.35;20.30;;;11.30;55.60;;;;;;6124720;28;20090;-85
2021/03/09 14:22:41;;;;;;;26.77;20.90;;;11.40;57.70;;;;;;6140633;28;20378;-83
2021/03/09 14:25:41;;;;;;;25.17;19.73;;;11.10;57.40;;;;;;6124823;28;20027;-84
2021/03/09 14:28:42;;;;;;;24.08;19.80;;;11.20;57.80;;;;;;6140579;28;20034;-86
2021/03/09 14:31:43;;;;;;;24.60;19.00;;;;;;;;;;6141596;28;20753;-87
2021/03/09 14:34:44;;;;;;;26.05;19.80;;;11.00;53.60;;;;;;6140732;28;20027;-86
2021/03/09 14:37:46;;;;;;;24.65;19.00;;;10.70;57.10;;;;;;6145203;28;20393;-85
2021/03/09 14:40:47;;;;;;;26.73;19.40;;;;;;;;;;6140278;28;20408;-86
2021/03/09 14:43:47;;;;;;;25.75;18.90;;;10.90;55.10;;;;;;6134074;28;20629;-87
2021/03/09 14:46:48;;;;;;;25.50;19.88;;;10.90;58.20;;;;;;6124846;28;20139;-85
2021/03/09 14:49:49;;;;;;;22.58;18.30;;;;;;;;;;6124405;28;20034;-85
2021/03/09 14:52:50;;;;;;;25.63;19.23;;;10.90;53.30;;;;;;6155177;28;20051;-84
2021/03/09 14:55:51;;;;;;;23.75;19.60;;;11.20;75.30;;;;;;6133406;28;20026;-85
2021/03/09 14:58:54;;;;;;;20.02;16.85;;;11.10;68.70;;;;;;6124373;28;20414;-88
2021/03/09 15:01:55;;;;;;;21.70;17.10;;;11.10;55.70;;;;;;6140025;28;20031;-86
2021/03/09 15:04:56;;;;;;;22.08;17.05;;;;;;;;;;6155635;28;20027;-87
2021/03/09 15:07:57;;;;;;;22.88;17.27;;;10.90;49.20;;;;;;6139503;28;20117;-86
2021/03/09 15:10:57;;;;;;;25.52;17.77;;;11.00;56.10;;;;;;6151825;28;20039;-85
2021/03/09 15:13:58;;;;;;;21.67;17.30;;;;;;;;;;6123228;28;20035;-85
2021/03/09 15:16:59;;;;;;;21.15;16.05;;;10.80;52.20;;;;;;6139178;28;20034;-84
2021/03/09 15:20:00;;;;;;;19.83;16.45;;;10.60;54.90;;;;;;6135301;28;20067;-87
2021/03/09 15:23:01;;;;;;;25.20;17.15;;;10.50;54.90;;;;;;6128553;28;20086;-86
2021/03/09 15:26:02;;;;;;;25.92;17.42;;;10.30;54.00;;;;;;6135379;28;20033;-85
2021/03/09 15:29:03;;;;;;;20.98;16.77;;;10.20;53.90;;;;;;6138905;28;20501;-86
2021/03/09 15:32:04;;;;;;;21.85;16.48;;;10.10;56.50;;;;;;6123044;28;20027;-83
2021/03/09 15:35:05;;;;;;;19.52;15.70;;;10.10;54.60;;;;;;6123256;28;20437;-84
2021/03/09 15:38:06;;;;;;;22.45;16.85;;;10.00;69.90;;;;;;6138860;28;20409;-85
2021/03/09 15:41:07;;;;;;;26.05;17.95;;;10.10;57.80;;;;;;6123656;28;20085;-84
2021/03/09 15:44:08;;;;;;;23.73;16.20;;;;;;;;;;6138563;28;20038;-85
2021/03/09 15:47:08;;;;;;;20.90;15.50;;;9.60;53.00;;;;;;6138729;28;20034;-85
2021/03/09 15:50:10;;;;;;;20.77;16.48;;;9.70;57.10;;;;;;6128494;28;20023;-85
2021/03/09 15:53:11;;;;;;;21.77;17.65;;;9.40;73.40;;;;;;6138537;28;20441;-84